Time;durP1;ratioP1;P1;durP2;ratioP2;P2;SDS_P1;SDS_P2;PMS_P1;PMS_P2;Temp;Humidity;BMP_temperature;BMP_pressure;BME280_temperature;BME280_humidity;BME280_pressure;Samples;Min_cycle;Max_cycle;Signal;HPM_P1;HPM_P2
2023/08/09 00:01:07;;;;;;;;;;;;;;;28.60;32.01;98062.69;5078811;27;19967;-85
2023/08/09 00:03:33;;;;;;;;;;;;;;;29.29;30.48;98068.72;5087686;27;20341;-86
2023/08/09 00:05:59;;;;;;;;;;;;;;;28.43;32.20;98058.50;5077631;28;19921;-86
2023/08/09 00:08:25;;;;;;;;;;;;;;;28.47;31.97;98059.19;5072709;27;19923;-85
2023/08/09 00:10:51;;;;;;;;;;;;;;;28.76;31.22;98056.78;5073233;27;19916;-85
2023/08/09 00:13:17;;;;;;;;;;;;;;;28.21;32.94;98063.44;5073763;27;19925;-85
2023/08/09 00:15:43;;;;;;;;;;;;;;;28.46;31.68;98051.94;5091144;27;20395;-85
2023/08/09 00:18:10;;;;;;;;;;;;;;;27.51;33.94;98058.41;5091461;27;19924;-85
2023/08/09 00:20:36;;;;;;;;;;;;;;;27.48;33.90;98053.66;5091697;27;19920;-85
2023/08/09 00:23:03;;;;;;;;;;;;;;;28.17;32.85;98060.75;5088049;27;19921;-85
2023/08/09 00:25:29;;;;;;;;;;;;;;;28.60;32.08;98057.06;5097001;27;19923;-85
2023/08/09 00:27:55;;;;;;;;;;;;;;;28.73;31.51;98052.84;5084567;27;20012;-85
2023/08/09 00:30:22;;;;;;;;;;;;;;;28.53;31.89;98062.97;5080010;27;20307;-85
2023/08/09 00:32:48;;;;;;;;;;;;;;;28.29;32.34;98061.91;5083364;27;19920;-85
2023/08/09 00:35:14;;;;;;;;;;;;;;;28.55;31.54;98052.75;5082017;27;19972;-85
2023/08/09 00:37:40;;;;;;;;;;;;;;;27.83;32.97;98063.66;5074018;27;19928;-85
2023/08/09 00:40:07;;;;;;;;;;;;;;;28.18;32.30;98065.16;5078307;27;19920;-85
2023/08/09 00:42:34;;;;;;;;;;;;;;;28.28;32.01;98051.88;5073653;27;19945;-85
2023/08/09 00:45:00;;;;;;;;;;;;;;;28.35;31.69;98051.59;5080660;27;20428;-85
2023/08/09 00:47:26;;;;;;;;;;;;;;;28.05;31.98;98051.09;5073518;28;19964;-85
2023/08/09 00:49:52;;;;;;;;;;;;;;;26.85;34.42;98054.63;5085046;27;19920;-85
2023/08/09 00:52:19;;;;;;;;;;;;;;;27.09;33.92;98043.75;5074576;28;19941;-85
2023/08/09 00:54:48;;;;;;;;;;;;;;;26.78;34.37;98051.25;5080541;27;20290;-85
2023/08/09 00:57:14;;;;;;;;;;;;;;;26.53;34.62;98049.22;5074858;28;19965;-86
2023/08/09 00:59:40;;;;;;;;;;;;;;;27.09;33.89;98043.75;5071711;27;19970;-85
2023/08/09 01:02:09;;;;;;;;;;;;;;;27.17;33.61;98045.06;5076167;27;19944;-86
2023/08/09 01:04:36;;;;;;;;;;;;;;;27.78;32.52;98047.31;5087238;27;20265;-85
2023/08/09 01:07:14;;;;;;;;;;;;;;;27.97;32.35;98046.97;5082546;28;19961;-85
2023/08/09 01:09:45;;;;;;;;;;;;;;;27.56;32.85;98049.34;5086414;27;19957;-85
2023/08/09 01:12:12;;;;;;;;;;;;;;;26.87;34.48;98051.34;5078446;27;19920;-85
2023/08/09 01:14:40;;;;;;;;;;;;;;;27.06;33.99;98055.94;5074397;27;19931;-86
2023/08/09 01:17:08;;;;;;;;;;;;;;;27.01;34.05;98050.88;5080712;27;20419;-85
2023/08/09 01:19:34;;;;;;;;;;;;;;;27.18;33.62;98055.91;5079489;27;19929;-85
2023/08/09 01:22:20;;;;;;;;;;;;;;;27.03;34.85;98051.19;5080275;28;19925;-85
2023/08/09 01:24:48;;;;;;;;;;;;;;;27.50;33.17;98054.00;5081312;28;19916;-85
2023/08/09 01:27:14;;;;;;;;;;;;;;;27.86;33.04;98054.28;5091007;28;19916;-85
2023/08/09 01:29:40;;;;;;;;;;;;;;;28.02;32.56;98057.69;5077341;27;19920;-85
2023/08/09 01:32:07;;;;;;;;;;;;;;;28.25;32.17;98058.44;5090936;27;19943;-85
2023/08/09 01:34:34;;;;;;;;;;;;;;;28.23;32.47;98049.66;5077270;27;19965;-85
2023/08/09 01:37:04;;;;;;;;;;;;;;;28.75;31.10;98055.22;5076542;28;19963;-85
2023/08/09 01:39:32;;;;;;;;;;;;;;;28.70;31.22;98059.47;5081900;27;19924;-85
2023/08/09 01:41:58;;;;;;;;;;;;;;;28.59;31.60;98061.13;5091930;27;19927;-85
2023/08/09 01:44:25;;;;;;;;;;;;;;;28.68;31.97;98056.28;5075394;27;19921;-85
2023/08/09 01:46:52;;;;;;;;;;;;;;;28.79;31.23;98058.69;5074973;28;19924;-86
2023/08/09 01:49:21;;;;;;;;;;;;;;;28.61;31.73;98050.16;5082523;27;20373;-86
2023/08/09 01:51:47;;;;;;;;;;;;;;;28.53;32.20;98058.09;5081492;27;19920;-86
2023/08/09 01:54:14;;;;;;;;;;;;;;;28.84;31.44;98051.63;5082280;27;19921;-86
2023/08/09 01:56:41;;;;;;;;;;;;;;;29.11;30.78;98057.31;5085629;28;19919;-85
2023/08/09 01:59:09;;;;;;;;;;;;;;;29.00;31.75;98062.66;5088172;27;19951;-85
2023/08/09 02:01:35;;;;;;;;;;;;;;;29.13;30.84;98066.13;5078608;27;19927;-85
2023/08/09 02:04:03;;;;;;;;;;;;;;;29.36;30.33;98059.88;5076980;27;20322;-85
2023/08/09 02:06:32;;;;;;;;;;;;;;;29.12;31.02;98062.53;5080355;27;19923;-85
2023/08/09 02:08:58;;;;;;;;;;;;;;;29.15;30.61;98064.41;5075671;27;19924;-85
2023/08/09 02:11:24;;;;;;;;;;;;;;;28.90;31.15;98059.03;5069830;27;19920;-86
2023/08/09 02:13:50;;;;;;;;;;;;;;;28.90;30.87;98053.38;5070235;27;19935;-85
2023/08/09 02:16:16;;;;;;;;;;;;;;;28.71;31.54;98060.22;5079726;27;19920;-85
2023/08/09 02:18:42;;;;;;;;;;;;;;;28.66;31.59;98064.44;5088385;27;20373;-85
2023/08/09 02:21:09;;;;;;;;;;;;;;;28.57;31.58;98060.75;5072172;27;19923;-85
2023/08/09 02:23:35;;;;;;;;;;;;;;;28.53;31.73;98057.31;5089482;27;20015;-85
2023/08/09 02:26:01;;;;;;;;;;;;;;;28.70;32.04;98067.13;5090929;28;19916;-85
2023/08/09 02:28:27;;;;;;;;;;;;;;;28.86;31.54;98051.94;5075889;28;19921;-85
2023/08/09 02:30:53;;;;;;;;;;;;;;;28.79;31.21;98061.50;5069298;28;19924;-85
2023/08/09 02:33:19;;;;;;;;;;;;;;;28.64;31.35;98058.47;5081189;27;19928;-85
2023/08/09 02:35:56;;;;;;;;;;;;;;;28.52;31.77;98069.88;5086121;27;19972;-85
2023/08/09 02:38:23;;;;;;;;;;;;;;;28.28;32.09;98057.50;5075990;27;20380;-85
2023/08/09 02:40:49;;;;;;;;;;;;;;;28.37;31.98;98060.38;5071049;27;19920;-85
2023/08/09 02:43:18;;;;;;;;;;;;;;;28.35;32.11;98057.22;5075213;27;19924;-85
2023/08/09 02:45:45;;;;;;;;;;;;;;;28.18;31.95;98059.50;5082762;27;19925;-85
2023/08/09 02:48:11;;;;;;;;;;;;;;;28.41;31.56;98058.19;5084651;27;19920;-85
2023/08/09 02:50:37;;;;;;;;;;;;;;;28.42;32.02;98060.56;5070961;27;19924;-86
2023/08/09 02:53:04;;;;;;;;;;;;;;;28.72;31.22;98059.78;5076938;27;19924;-85
2023/08/09 02:55:31;;;;;;;;;;;;;;;28.60;31.38;98062.69;5074780;27;20011;-86
2023/08/09 02:57:57;;;;;;;;;;;;;;;28.44;32.08;98063.72;5069913;28;20330;-86
2023/08/09 03:00:23;;;;;;;;;;;;;;;28.77;31.44;98066.06;5073055;28;20013;-86
2023/08/09 03:02:50;;;;;;;;;;;;;;;28.89;31.38;98062.31;5076939;27;20035;-86
2023/08/09 03:05:16;;;;;;;;;;;;;;;28.74;31.25;98057.25;5089892;27;19927;-86
2023/08/09 03:07:42;;;;;;;;;;;;;;;28.54;31.66;98065.31;5089844;27;19916;-86
2023/08/09 03:10:08;;;;;;;;;;;;;;;28.76;31.45;98059.59;5088215;27;19920;-86
2023/08/09 03:12:35;;;;;;;;;;;;;;;28.96;31.60;98057.16;5077659;27;19920;-85
2023/08/09 03:15:01;;;;;;;;;;;;;;;29.05;31.02;98064.88;5086751;27;19931;-85
2023/08/09 03:17:27;;;;;;;;;;;;;;;28.84;31.40;98063.72;5080350;27;20296;-85
2023/08/09 03:19:53;;;;;;;;;;;;;;;28.38;31.93;98062.72;5073330;28;19924;-85
2023/08/09 03:22:19;;;;;;;;;;;;;;;27.87;32.59;98067.91;5070011;28;19916;-85
2023/08/09 03:24:45;;;;;;;;;;;;;;;27.83;32.92;98063.66;5070343;28;19921;-85
2023/08/09 03:27:11;;;;;;;;;;;;;;;28.01;32.58;98066.59;5077465;27;19972;-85
2023/08/09 03:29:37;;;;;;;;;;;;;;;27.96;32.30;98067.16;5083870;28;19922;-85
2023/08/09 03:32:04;;;;;;;;;;;;;;;27.78;32.77;98070.66;5083306;27;19924;-85
2023/08/09 03:34:30;;;;;;;;;;;;;;;27.52;32.94;98069.22;5083167;27;20484;-85
2023/08/09 03:36:56;;;;;;;;;;;;;;;27.80;32.84;98070.19;5078479;27;20076;-86
2023/08/09 03:39:22;;;;;;;;;;;;;;;28.05;32.52;98070.88;5079309;27;20010;-86
2023/08/09 03:41:48;;;;;;;;;;;;;;;28.15;32.39;98059.63;5067067;27;19925;-86
2023/08/09 03:44:14;;;;;;;;;;;;;;;28.17;32.86;98065.63;5074861;28;19921;-85
2023/08/09 03:46:40;;;;;;;;;;;;;;;28.30;32.26;98072.75;5080957;27;20381;-85
2023/08/09 03:49:06;;;;;;;;;;;;;;;28.30;32.41;98071.94;5093536;27;19923;-85
2023/08/09 03:51:32;;;;;;;;;;;;;;;28.08;32.75;98081.25;5090916;28;20031;-85
2023/08/09 03:53:59;;;;;;;;;;;;;;;28.23;32.37;98081.50;5076219;28;20366;-85
2023/08/09 03:56:25;;;;;;;;;;;;;;;27.86;32.88;98076.84;5062608;27;20296;-86
2023/08/09 03:58:51;;;;;;;;;;;;;;;27.80;33.34;98076.63;5091383;27;20308;-85
2023/08/09 04:01:17;;;;;;;;;;;;;;;27.91;33.34;98074.19;5090921;27;20329;-86
2023/08/09 04:03:43;;;;;;;;;;;;;;;28.29;32.78;98076.81;5080945;27;19959;-86
2023/08/09 04:06:12;;;;;;;;;;;;;;;28.60;32.14;98065.53;5078510;27;20336;-85
2023/08/09 04:08:38;;;;;;;;;;;;;;;28.47;32.78;98070.47;5091091;27;19921;-86
2023/08/09 04:11:04;;;;;;;;;;;;;;;28.72;32.37;98070.28;5088107;27;20399;-86
2023/08/09 04:13:30;;;;;;;;;;;;;;;29.07;31.59;98070.84;5084382;27;19971;-86
2023/08/09 04:15:57;;;;;;;;;;;;;;;28.90;31.60;98064.69;5070896;27;19936;-85
2023/08/09 04:18:23;;;;;;;;;;;;;;;28.32;32.50;98063.81;5083718;27;20388;-85
2023/08/09 04:20:50;;;;;;;;;;;;;;;28.17;32.31;98077.69;5083383;27;19931;-85
2023/08/09 04:23:17;;;;;;;;;;;;;;;27.97;33.00;98080.03;5072388;27;19938;-86
2023/08/09 04:25:44;;;;;;;;;;;;;;;28.02;33.54;98076.66;5079516;27;19963;-85
2023/08/09 04:28:10;;;;;;;;;;;;;;;28.37;33.46;98066.81;5090197;27;19928;-86
2023/08/09 04:30:37;;;;;;;;;;;;;;;28.55;32.98;98078.19;5069615;27;20289;-85
2023/08/09 04:33:03;;;;;;;;;;;;;;;29.02;32.86;98077.91;5080142;27;19924;-86
2023/08/09 04:35:33;;;;;;;;;;;;;;;29.17;32.12;98080.91;5072471;27;19919;-86
2023/08/09 04:38:00;;;;;;;;;;;;;;;29.33;31.78;98078.63;5079954;27;19920;-86
2023/08/09 04:40:26;;;;;;;;;;;;;;;28.92;32.51;98076.28;5078506;27;19975;-86
2023/08/09 04:42:52;;;;;;;;;;;;;;;28.48;33.47;98084.13;5083221;27;19920;-86
2023/08/09 04:45:18;;;;;;;;;;;;;;;28.58;33.04;98079.31;5085073;27;20473;-86
2023/08/09 04:47:44;;;;;;;;;;;;;;;28.76;32.66;98082.22;5075063;27;20019;-86
2023/08/09 04:50:10;;;;;;;;;;;;;;;28.60;33.57;98088.91;5077195;27;19924;-86
2023/08/09 04:52:37;;;;;;;;;;;;;;;28.77;33.40;98092.28;5084473;27;20011;-86
2023/08/09 04:55:04;;;;;;;;;;;;;;;28.98;33.26;98088.56;5079354;27;20415;-86
2023/08/09 04:57:32;;;;;;;;;;;;;;;29.18;33.03;98088.16;5073869;28;19921;-85
2023/08/09 04:59:58;;;;;;;;;;;;;;;28.94;33.01;98092.81;5081425;28;19960;-85
2023/08/09 05:02:24;;;;;;;;;;;;;;;28.96;33.20;98084.63;5077174;27;19988;-84
2023/08/09 05:04:50;;;;;;;;;;;;;;;28.96;33.31;98081.81;5078039;27;19935;-84
2023/08/09 05:07:16;;;;;;;;;;;;;;;29.04;33.36;98080.25;5073333;27;19920;-84
2023/08/09 05:09:42;;;;;;;;;;;;;;;29.18;33.57;98086.13;5076185;28;19921;-84
2023/08/09 05:12:08;;;;;;;;;;;;;;;29.39;33.33;98084.41;5076058;27;19932;-84
2023/08/09 05:14:34;;;;;;;;;;;;;;;29.28;33.32;98090.56;5088732;27;19928;-84
2023/08/09 05:17:00;;;;;;;;;;;;;;;29.27;32.98;98093.84;5083472;27;20278;-84
2023/08/09 05:19:26;;;;;;;;;;;;;;;29.69;32.59;98075.00;5070809;27;19935;-83
2023/08/09 05:21:52;;;;;;;;;;;;;;;29.58;33.19;98090.88;5075322;27;19921;-84
2023/08/09 05:24:19;;;;;;;;;;;;;;;29.73;33.32;98086.16;5063666;27;19928;-84
2023/08/09 05:26:45;;;;;;;;;;;;;;;29.71;33.27;98094.34;5092390;27;20697;-84
2023/08/09 05:29:11;;;;;;;;;;;;;;;29.84;32.33;98097.81;5075108;27;19969;-84
2023/08/09 05:31:37;;;;;;;;;;;;;;;29.79;33.24;98095.63;5078396;27;19927;-84
2023/08/09 05:34:03;;;;;;;;;;;;;;;29.84;32.29;98092.16;5072412;28;20015;-84
2023/08/09 05:36:31;;;;;;;;;;;;;;;29.99;33.25;98090.25;5088180;27;20281;-84
2023/08/09 05:38:58;;;;;;;;;;;;;;;30.14;33.46;98093.22;5088475;27;19980;-84
2023/08/09 05:41:24;;;;;;;;;;;;;;;30.00;32.69;98089.78;5090978;27;20288;-84
2023/08/09 05:43:50;;;;;;;;;;;;;;;30.18;32.25;98093.84;5087185;27;19924;-84
2023/08/09 05:46:16;;;;;;;;;;;;;;;30.43;35.54;98093.50;5083428;27;20525;-84
2023/08/09 05:48:42;;;;;;;;;;;;;;;31.11;32.93;98095.38;5091317;28;19927;-84
2023/08/09 05:51:08;;;;;;;;;;;;;;;31.26;33.11;98103.97;5086892;27;19928;-84
2023/08/09 05:53:34;;;;;;;;;;;;;;;31.37;33.57;98099.31;5074816;28;19916;-84
2023/08/09 05:56:00;;;;;;;;;;;;;;;31.46;32.62;98107.00;5083680;27;21914;-82
2023/08/09 05:58:26;;;;;;;;;;;;;;;31.34;33.97;98100.28;5079540;27;19928;-82
2023/08/09 06:00:52;;;;;;;;;;;;;;;31.61;33.52;98096.50;5071550;27;19921;-81
2023/08/09 06:03:18;;;;;;;;;;;;;;;31.93;32.59;98089.09;5076104;27;20293;-81
2023/08/09 06:05:44;;;;;;;;;;;;;;;31.50;32.72;98090.59;5077994;27;19920;-81
2023/08/09 06:08:10;;;;;;;;;;;;;;;31.82;32.45;98084.00;5091012;27;19927;-82
2023/08/09 06:10:36;;;;;;;;;;;;;;;31.48;34.28;98084.63;5084020;27;19924;-82
2023/08/09 06:13:02;;;;;;;;;;;;;;;31.77;33.85;98084.69;5079514;27;19921;-82
2023/08/09 06:15:28;;;;;;;;;;;;;;;32.21;32.11;98075.47;5070756;28;19924;-81
2023/08/09 06:17:54;;;;;;;;;;;;;;;32.29;33.89;98080.25;5077609;27;19924;-82
2023/08/09 06:20:21;;;;;;;;;;;;;;;32.48;33.38;98083.66;5073585;28;19941;-82
2023/08/09 06:22:48;;;;;;;;;;;;;;;32.68;32.16;98086.59;5083890;27;19928;-82
2023/08/09 06:25:14;;;;;;;;;;;;;;;32.57;32.90;98090.06;5080013;27;19935;-82
2023/08/09 06:27:40;;;;;;;;;;;;;;;32.43;30.75;98087.19;5089401;27;20006;-82
2023/08/09 06:30:06;;;;;;;;;;;;;;;32.42;32.35;98083.56;5072838;27;20381;-82
2023/08/09 06:32:32;;;;;;;;;;;;;;;32.85;31.66;98081.97;5070621;28;20007;-82
2023/08/09 06:34:59;;;;;;;;;;;;;;;33.04;31.28;98077.63;5074423;27;20389;-82
2023/08/09 06:37:25;;;;;;;;;;;;;;;33.13;30.78;98071.78;5072243;27;20285;-82
2023/08/09 06:39:51;;;;;;;;;;;;;;;32.90;31.39;98080.47;5084629;27;19920;-82
2023/08/09 06:42:17;;;;;;;;;;;;;;;33.05;32.63;98075.56;5090617;28;19920;-82
2023/08/09 06:44:43;;;;;;;;;;;;;;;33.16;30.08;98078.56;5068105;27;19947;-82
2023/08/09 06:47:10;;;;;;;;;;;;;;;33.09;33.51;98084.66;5085763;27;19921;-82
2023/08/09 06:49:36;;;;;;;;;;;;;;;33.69;33.49;98081.06;5082740;27;19924;-82
2023/08/09 06:52:03;;;;;;;;;;;;;;;34.40;32.34;98085.97;5089667;28;19916;-81
2023/08/09 06:54:29;;;;;;;;;;;;;;;34.47;30.38;98077.72;5083098;27;19926;-82
2023/08/09 06:56:55;;;;;;;;;;;;;;;34.15;32.45;98081.84;5088977;28;19920;-82
2023/08/09 06:59:21;;;;;;;;;;;;;;;34.13;32.73;98090.13;5067598;28;19924;-82
2023/08/09 07:01:48;;;;;;;;;;;;;;;34.38;32.80;98085.72;5084877;28;20280;-82
2023/08/09 07:04:15;;;;;;;;;;;;;;;34.55;32.80;98090.28;5087513;27;19920;-82
2023/08/09 07:06:41;;;;;;;;;;;;;;;34.63;33.46;98088.56;5089698;27;19920;-82
2023/08/09 07:09:07;;;;;;;;;;;;;;;34.61;32.59;98091.09;5089150;28;20292;-82
2023/08/09 07:11:33;;;;;;;;;;;;;;;34.67;31.84;98089.09;5084286;27;20439;-82
2023/08/09 07:13:59;;;;;;;;;;;;;;;34.64;31.48;98095.81;5063766;27;19976;-82
2023/08/09 07:16:25;;;;;;;;;;;;;;;34.62;30.26;98084.13;5083778;27;20296;-82
2023/08/09 07:18:52;;;;;;;;;;;;;;;34.52;31.26;98088.44;5086258;27;19924;-82
2023/08/09 07:21:18;;;;;;;;;;;;;;;34.54;31.09;98085.84;5089779;27;19924;-82
2023/08/09 07:23:44;;;;;;;;;;;;;;;34.45;30.68;98090.97;5089051;28;19927;-82
2023/08/09 07:26:10;;;;;;;;;;;;;;;34.48;30.55;98090.72;5091516;28;19972;-82
2023/08/09 07:28:36;;;;;;;;;;;;;;;34.73;31.11;98089.13;5086707;28;19920;-82
2023/08/09 07:31:02;;;;;;;;;;;;;;;35.10;30.99;98087.06;5089992;28;20027;-82
2023/08/09 07:33:28;;;;;;;;;;;;;;;35.13;29.30;98085.25;5090654;28;20507;-82
2023/08/09 07:35:54;;;;;;;;;;;;;;;34.96;28.59;98085.13;5086771;28;20011;-82
2023/08/09 07:38:20;;;;;;;;;;;;;;;35.00;27.35;98087.75;5090704;27;19958;-82
2023/08/09 07:40:46;;;;;;;;;;;;;;;34.98;30.54;98087.50;5091388;28;19928;-83
2023/08/09 07:43:12;;;;;;;;;;;;;;;35.23;30.96;98090.28;5091534;28;19928;-82
2023/08/09 07:45:42;;;;;;;;;;;;;;;35.30;29.75;98089.00;5083601;28;20326;-82
2023/08/09 07:48:08;;;;;;;;;;;;;;;35.26;29.44;98083.56;5088217;27;19943;-82
2023/08/09 07:50:34;;;;;;;;;;;;;;;35.32;31.08;98086.41;5084906;28;19963;-82
2023/08/09 07:53:00;;;;;;;;;;;;;;;35.48;30.03;98082.06;5091816;27;19926;-82
2023/08/09 07:55:26;;;;;;;;;;;;;;;35.70;30.01;98082.97;5091959;28;19920;-82
2023/08/09 07:57:52;;;;;;;;;;;;;;;35.68;29.50;98085.59;5091325;28;20369;-82
2023/08/09 08:00:18;;;;;;;;;;;;;;;35.55;30.57;98078.75;5087712;28;19927;-82
2023/08/09 08:02:45;;;;;;;;;;;;;;;35.70;30.46;98085.84;5082721;27;19927;-82
2023/08/09 08:05:13;;;;;;;;;;;;;;;35.59;27.59;98082.94;5092566;27;19916;-82
2023/08/09 08:07:39;;;;;;;;;;;;;;;35.21;28.52;98074.94;5083184;28;19920;-82
2023/08/09 08:10:09;;;;;;;;;;;;;;;35.21;30.50;98087.16;5087443;27;19921;-82
2023/08/09 08:12:36;;;;;;;;;;;;;;;35.55;30.73;98073.03;5088789;27;19924;-82
2023/08/09 08:15:03;;;;;;;;;;;;;;;35.44;29.39;98079.47;5088284;28;19921;-82
2023/08/09 08:17:30;;;;;;;;;;;;;;;35.14;27.34;98084.78;5085172;27;20326;-81
2023/08/09 08:19:56;;;;;;;;;;;;;;;34.93;28.48;98083.31;5075627;27;19923;-82
2023/08/09 08:22:22;;;;;;;;;;;;;;;34.73;27.75;98092.75;5086002;27;19920;-82
2023/08/09 08:24:48;;;;;;;;;;;;;;;34.54;28.58;98080.16;5073947;28;19926;-82
2023/08/09 08:27:14;;;;;;;;;;;;;;;34.79;28.88;98083.47;5073763;28;19916;-82
2023/08/09 08:29:40;;;;;;;;;;;;;;;34.99;28.82;98081.25;5090876;27;20453;-81
2023/08/09 08:32:08;;;;;;;;;;;;;;;35.28;30.31;98080.97;5081315;27;20273;-81
2023/08/09 08:34:35;;;;;;;;;;;;;;;35.53;29.38;98078.50;5085344;28;19931;-82
2023/08/09 08:37:01;;;;;;;;;;;;;;;35.37;28.69;98082.81;5090453;27;20011;-81
2023/08/09 08:39:29;;;;;;;;;;;;;;;35.29;25.35;98071.09;5058637;27;19927;-80
2023/08/09 08:41:58;;;;;;;;;;;;;;;34.83;27.60;98081.94;5089774;27;19973;-80
2023/08/09 08:44:24;;;;;;;;;;;;;;;34.71;28.73;98081.06;5092171;27;19924;-80
2023/08/09 08:46:51;;;;;;;;;;;;;;;34.82;29.86;98079.59;5087765;28;19924;-80
2023/08/09 08:49:19;;;;;;;;;;;;;;;35.11;29.50;98082.94;5091374;27;19920;-80
2023/08/09 08:51:47;;;;;;;;;;;;;;;34.95;28.72;98077.09;5088687;27;20345;-80
2023/08/09 08:54:13;;;;;;;;;;;;;;;34.80;29.64;98079.34;5088151;27;20014;-80
2023/08/09 08:56:39;;;;;;;;;;;;;;;35.09;32.32;98085.53;5087508;28;19916;-80
2023/08/09 08:59:05;;;;;;;;;;;;;;;35.62;30.64;98064.75;5092142;28;19939;-80
2023/08/09 09:01:32;;;;;;;;;;;;;;;35.91;29.73;98072.13;5092328;28;20276;-81
2023/08/09 09:03:58;;;;;;;;;;;;;;;36.24;30.40;98077.16;5092381;28;20430;-81
2023/08/09 09:06:24;;;;;;;;;;;;;;;36.38;29.32;98076.91;5084790;28;19920;-82
2023/08/09 09:08:55;;;;;;;;;;;;;;;36.13;27.88;98071.44;5076693;28;19965;-83
2023/08/09 09:11:24;;;;;;;;;;;;;;;36.08;27.08;98072.19;5080662;27;19936;-81
2023/08/09 09:13:51;;;;;;;;;;;;;;;36.16;28.00;98067.53;5086771;28;19920;-80
2023/08/09 09:16:19;;;;;;;;;;;;;;;36.17;29.02;98072.75;5086411;27;20419;-80
2023/08/09 09:18:46;;;;;;;;;;;;;;;36.26;25.72;98061.06;5085339;27;19993;-80
2023/08/09 09:21:16;;;;;;;;;;;;;;;35.43;32.60;98058.69;5071874;27;20015;-80
2023/08/09 09:23:42;;;;;;;;;;;;;;;35.51;29.31;98070.44;5071782;27;19917;-80
2023/08/09 09:26:09;;;;;;;;;;;;;;;35.80;31.21;98072.88;5079416;28;19923;-80
2023/08/09 09:28:38;;;;;;;;;;;;;;;36.17;30.82;98069.88;5086735;27;19919;-80
2023/08/09 09:31:04;;;;;;;;;;;;;;;36.08;28.65;98072.19;5071613;27;19920;-81
2023/08/09 09:33:34;;;;;;;;;;;;;;;36.05;29.07;98063.38;5074745;27;19987;-81
2023/08/09 09:36:01;;;;;;;;;;;;;;;36.39;28.94;98077.69;5081991;28;19920;-83
2023/08/09 09:38:27;;;;;;;;;;;;;;;36.06;28.41;98062.06;5086154;27;19924;-81
2023/08/09 09:40:53;;;;;;;;;;;;;;;36.03;28.82;98060.25;5053027;27;19921;-81
2023/08/09 09:43:19;;;;;;;;;;;;;;;36.05;26.61;98062.56;5077167;27;20031;-81
2023/08/09 09:45:45;;;;;;;;;;;;;;;36.00;27.75;98061.28;5073993;27;20015;-81
2023/08/09 09:48:18;;;;;;;;;;;;;;;36.11;30.20;98065.47;5079613;27;19927;-80
2023/08/09 09:50:44;;;;;;;;;;;;;;;36.10;30.69;98061.81;5090259;27;19923;-81
2023/08/09 09:53:14;;;;;;;;;;;;;;;36.31;27.81;98060.28;5091867;27;20349;-81
2023/08/09 09:55:40;;;;;;;;;;;;;;;36.51;30.46;98053.53;5091479;27;19912;-80
2023/08/09 09:58:07;;;;;;;;;;;;;;;36.60;29.62;98053.25;5078187;27;20105;-80
2023/08/09 10:00:33;;;;;;;;;;;;;;;36.64;27.77;98054.56;5077977;27;19996;-79
2023/08/09 10:03:00;;;;;;;;;;;;;;;36.42;26.61;98042.31;5079949;27;20384;-79
2023/08/09 10:05:35;;;;;;;;;;;;;;;36.22;28.27;98051.16;5080058;27;20392;-80
2023/08/09 10:08:08;;;;;;;;;;;;;;;36.42;30.99;98045.97;5078682;27;19927;-80
2023/08/09 10:10:35;;;;;;;;;;;;;;;36.61;29.31;98044.19;5084438;27;19920;-80
2023/08/09 10:13:03;;;;;;;;;;;;;;;36.51;26.33;98044.94;5086452;27;20292;-80
2023/08/09 10:15:31;;;;;;;;;;;;;;;36.06;27.74;98049.81;5079596;27;19931;-80
2023/08/09 10:17:58;;;;;;;;;;;;;;;36.15;30.19;98045.97;5084606;28;19976;-80
2023/08/09 10:20:25;;;;;;;;;;;;;;;36.44;29.21;98054.03;5083568;27;19964;-80
2023/08/09 10:22:55;;;;;;;;;;;;;;;36.61;29.54;98054.84;5086611;27;19924;-80
2023/08/09 10:25:40;;;;;;;;;;;;;;;36.49;26.08;98050.41;5078882;27;19925;-80
2023/08/09 10:28:06;;;;;;;;;;;;;;;36.07;27.95;98054.25;5082760;27;20347;-80
2023/08/09 10:30:41;;;;;;;;;;;;;;;36.22;27.15;98056.88;5082393;27;19980;-80
2023/08/09 10:33:09;;;;;;;;;;;;;;;36.19;30.38;98046.47;5089796;27;19926;-80
2023/08/09 10:35:48;;;;;;;;;;;;;;;36.29;29.80;98047.78;5080277;27;20365;-80
2023/08/09 10:38:16;;;;;;;;;;;;;;;36.08;27.12;98045.16;5076760;28;19956;-80
2023/08/09 10:40:42;;;;;;;;;;;;;;;35.94;29.87;98046.13;5090169;27;19912;-80
2023/08/09 10:43:16;;;;;;;;;;;;;;;35.89;27.67;98049.78;5081560;27;19963;-80
2023/08/09 10:45:42;;;;;;;;;;;;;;;35.91;27.13;98050.06;5081637;28;20011;-81
2023/08/09 10:48:27;;;;;;;;;;;;;;;35.42;27.91;98042.88;5070426;28;19924;-80
2023/08/09 10:51:00;;;;;;;;;;;;;;;35.35;26.86;98046.22;5081462;28;19923;-81
2023/08/09 10:53:27;;;;;;;;;;;;;;;35.46;28.82;98048.31;5073597;27;19928;-80
2023/08/09 10:55:57;;;;;;;;;;;;;;;35.79;28.43;98042.75;5080575;27;19986;-80
2023/08/09 10:58:29;;;;;;;;;;;;;;;35.37;30.57;98040.75;5090422;27;19931;-80
2023/08/09 11:00:55;;;;;;;;;;;;;;;35.31;26.32;98034.22;5090120;27;19923;-81
2023/08/09 11:03:22;;;;;;;;;;;;;;;35.27;28.49;98038.63;5082003;27;19925;-80
2023/08/09 11:05:48;;;;;;;;;;;;;;;35.22;27.79;98036.53;5076028;28;19917;-80
2023/08/09 11:08:18;;;;;;;;;;;;;;;35.23;25.81;98038.88;5080883;27;20400;-80
2023/08/09 11:10:45;;;;;;;;;;;;;;;35.34;28.34;98049.56;5082072;27;19920;-81
2023/08/09 11:13:13;;;;;;;;;;;;;;;35.46;28.01;98044.66;5088778;27;19999;-81
2023/08/09 11:15:41;;;;;;;;;;;;;;;35.06;28.42;98057.97;5091985;27;19927;-80
2023/08/09 11:18:07;;;;;;;;;;;;;;;35.12;28.41;98066.59;5082268;28;19953;-80
2023/08/09 11:20:34;;;;;;;;;;;;;;;35.00;26.37;98071.44;5093851;28;19917;-80
2023/08/09 11:23:00;;;;;;;;;;;;;;;34.90;27.56;98087.19;5094208;27;19919;-81
2023/08/09 11:25:27;;;;;;;;;;;;;;;34.73;28.46;98086.25;5086615;28;19924;-80
2023/08/09 11:27:54;;;;;;;;;;;;;;;34.80;30.94;98099.31;5085916;27;20444;-80
2023/08/09 11:30:21;;;;;;;;;;;;;;;34.84;29.25;98089.22;5091693;27;19924;-79
2023/08/09 11:33:13;;;;;;;;;;;;;;;34.71;30.50;98086.00;5088585;27;19964;-80
2023/08/09 11:35:43;;;;;;;;;;;;;;;34.69;31.13;98086.50;5092709;28;20011;-81
2023/08/09 11:38:10;;;;;;;;;;;;;;;34.81;33.00;98075.97;5089760;27;19926;-83
2023/08/09 11:40:43;;;;;;;;;;;;;;;35.23;32.69;98072.34;5091043;28;19916;-82
2023/08/09 11:43:11;;;;;;;;;;;;;;;35.81;30.24;98060.16;5082978;27;19955;-83
2023/08/09 11:45:44;;;;;;;;;;;;;;;35.61;30.29;98062.44;5093072;27;19916;-83
2023/08/09 11:48:22;;;;;;;;;;;;;;;35.58;31.66;98067.09;5075150;27;19928;-83
2023/08/09 11:50:57;;;;;;;;;;;;;;;35.68;31.56;98067.66;5076359;28;19997;-81
2023/08/09 11:53:23;;;;;;;;;;;;;;;35.73;31.57;98073.38;5073027;28;19916;-81
2023/08/09 11:55:49;;;;;;;;;;;;;;;35.77;29.85;98070.28;5072695;28;19913;-82
2023/08/09 11:58:15;;;;;;;;;;;;;;;35.74;31.25;98066.38;5073742;28;19920;-81
2023/08/09 12:00:42;;;;;;;;;;;;;;;35.93;29.94;98063.81;5086482;28;20016;-81
2023/08/09 12:03:08;;;;;;;;;;;;;;;35.97;30.41;98064.34;5072884;28;19924;-80
2023/08/09 12:05:34;;;;;;;;;;;;;;;35.59;31.68;98070.75;5072789;28;19916;-81
2023/08/09 12:08:03;;;;;;;;;;;;;;;35.24;30.18;98080.41;5083475;28;19916;-81
2023/08/09 12:10:29;;;;;;;;;;;;;;;34.43;29.73;98080.03;5092601;27;20365;-81
2023/08/09 12:12:55;;;;;;;;;;;;;;;34.34;30.57;98077.38;5084118;27;19964;-81
2023/08/09 12:15:22;;;;;;;;;;;;;;;34.13;29.27;98080.78;5075406;28;19924;-81
2023/08/09 12:17:48;;;;;;;;;;;;;;;33.69;31.57;98079.00;5092263;27;20316;-81
2023/08/09 12:20:14;;;;;;;;;;;;;;;33.07;31.06;98076.59;5076323;28;20416;-81
2023/08/09 12:22:40;;;;;;;;;;;;;;;33.24;29.35;98083.31;5072688;28;20382;-81
2023/08/09 12:25:09;;;;;;;;;;;;;;;32.60;32.72;98102.50;5075772;28;20289;-81
2023/08/09 12:27:35;;;;;;;;;;;;;;;32.32;31.72;98099.16;5090711;28;19963;-81
2023/08/09 12:30:01;;;;;;;;;;;;;;;32.00;33.06;98098.06;5079196;27;19963;-79
2023/08/09 12:32:29;;;;;;;;;;;;;;;31.59;35.94;98103.91;5072861;27;19925;-80
2023/08/09 12:34:55;;;;;;;;;;;;;;;31.70;31.92;98113.44;5075956;27;20266;-81
2023/08/09 12:37:21;;;;;;;;;;;;;;;31.87;31.18;98114.56;5076508;27;19932;-81
2023/08/09 12:39:48;;;;;;;;;;;;;;;31.83;32.88;98108.31;5078359;27;20429;-82
2023/08/09 12:42:14;;;;;;;;;;;;;;;32.18;32.33;98111.31;5075772;28;19932;-82
2023/08/09 12:44:40;;;;;;;;;;;;;;;32.68;31.24;98117.88;5077633;28;20301;-82
2023/08/09 12:47:06;;;;;;;;;;;;;;;33.01;32.69;98112.75;5076967;27;19931;-81